Time;durP1;ratioP1;P1;durP2;ratioP2;P2;SDS_P1;SDS_P2;PMS_P1;PMS_P2;Temp;Humidity;BMP_temperature;BMP_pressure;BME280_temperature;BME280_humidity;BME280_pressure;Samples;Min_cycle;Max_cycle;Signal;HPM_P1;HPM_P2
2024/01/07 00:17:19;;;;;;;5.45;2.10;;;;;;;15.25;60.76;94235.16;6155340;23;20019;-27
2024/01/07 00:33:11;;;;;;;3.47;1.50;;;;;;;15.13;61.30;94231.03;6155845;23;20032;-27
2024/01/07 00:49:02;;;;;;;2.92;1.88;;;;;;;15.05;61.35;94246.50;6156973;23;20024;-26
2024/01/07 01:02:17;;;;;;;4.15;2.22;;;;;;;15.02;61.61;94236.59;6156772;23;20458;-27
2024/01/07 01:18:09;;;;;;;1.83;1.27;;;;;;;14.96;61.79;94249.56;6156794;23;20024;-26
2024/01/07 01:34:01;;;;;;;4.38;1.95;;;;;;;15.02;61.52;94242.03;6155281;23;20075;-27
2024/01/07 01:49:54;;;;;;;4.95;1.65;;;;;;;15.07;61.24;94247.47;6156711;23;20016;-26
2024/01/07 02:03:00;;;;;;;3.20;1.50;;;;;;;15.07;61.48;94244.00;6156831;23;20091;-26
2024/01/07 02:18:52;;;;;;;4.55;2.47;;;;;;;14.86;62.43;94240.91;6155950;23;20016;-27
2024/01/07 02:34:44;;;;;;;3.67;2.33;;;;;;;15.06;61.79;94239.78;6154849;23;20052;-26
2024/01/07 02:37:10;;;;;;;4.13;2.85;;;;;;;15.00;61.94;94233.63;6155905;23;20013;-26
2024/01/07 02:39:35;;;;;;;4.53;3.08;;;;;;;14.84;62.31;94231.75;6156237;23;20419;-26
2024/01/07 02:48:44;;;;;;;4.18;2.92;;;;;;;14.88;62.17;94237.69;6156074;23;20105;-26
2024/01/07 03:04:37;;;;;;;4.40;2.42;;;;;;;14.97;61.76;94235.38;6155524;23;20482;-26
2024/01/07 03:20:29;;;;;;;2.45;1.58;;;;;;;14.88;61.87;94232.97;6155516;23;20020;-26
2024/01/07 03:22:55;;;;;;;2.38;1.60;;;;;;;14.78;62.08;94234.53;6155695;23;20548;-26
2024/01/07 03:35:25;;;;;;;2.00;1.38;;;;;;;14.85;61.60;94222.31;6154130;23;20040;-26
2024/01/07 04:05:29;;;;;;;2.55;1.45;;;;;;;14.78;61.14;94215.44;6155401;23;20067;-27
2024/01/07 04:21:22;;;;;;;3.95;2.05;;;;;;;14.84;61.38;94218.84;6155173;23;20447;-26
2024/01/07 04:52:11;;;;;;;5.07;2.10;;;;;;;14.81;60.79;94222.59;6125596;23;20056;-27
2024/01/07 05:05:09;;;;;;;2.28;1.80;;;;;;;14.72;60.75;94220.16;6125613;23;20320;-26
2024/01/07 05:21:02;;;;;;;1.67;1.55;;;;;;;14.72;60.92;94225.63;6127122;23;20013;-26
2024/01/07 05:36:54;;;;;;;2.00;1.70;;;;;;;14.67;60.52;94242.78;6151411;23;20324;-26
2024/01/07 06:06:14;;;;;;;2.53;1.60;;;;;;;14.45;61.34;94253.81;6156339;23;20025;-27
2024/01/07 06:22:06;;;;;;;1.23;0.82;;;;;;;14.43;60.49;94264.50;6155856;23;20079;-26
2024/01/07 06:24:31;;;;;;;1.13;0.88;;;;;;;14.51;60.06;94268.16;6130213;23;20009;-26
2024/01/07 06:37:02;;;;;;;2.08;1.45;;;;;;;14.64;59.92;94285.44;6154887;23;20470;-26
2024/01/07 06:52:53;;;;;;;2.25;1.60;;;;;;;14.54;60.33;94287.00;6156039;23;20060;-26
2024/01/07 06:55:19;;;;;;;1.80;1.48;;;;;;;14.63;59.79;94294.13;6156377;23;20005;-26
2024/01/07 07:07:49;;;;;;;4.10;1.60;;;;;;;14.47;60.20;94298.41;6155369;23;20040;-26
2024/01/07 07:24:08;;;;;;;2.00;1.35;;;;;;;14.53;59.95;94312.78;6155352;23;20024;-26
2024/01/07 07:37:03;;;;;;;1.38;0.80;;;;;;;14.44;60.12;94318.53;6154499;23;20105;-26
2024/01/07 07:52:55;;;;;;;1.33;0.70;;;;;;;14.56;59.72;94330.88;6125897;23;20025;-26
2024/01/07 08:08:49;;;;;;;0.73;0.50;;;;;;;14.56;59.77;94346.50;6125598;23;20021;-27
2024/01/07 08:38:08;;;;;;;15.63;11.25;;;;;;;14.43;59.70;94363.41;6139672;23;20033;-27
2024/01/07 08:54:01;;;;;;;1.42;1.20;;;;;;;14.50;59.53;94381.97;6156945;23;20056;-26
2024/01/07 09:09:55;;;;;;;1.92;1.30;;;;;;;14.51;59.62;94390.91;6156821;23;20093;-27
2024/01/07 09:23:03;;;;;;;1.65;1.10;;;;;;;14.54;59.72;94387.91;6156955;23;20017;-26
2024/01/07 09:38:55;;;;;;;1.48;0.65;;;;;;;14.57;59.86;94386.94;6155064;23;20084;-27
2024/01/07 09:41:21;;;;;;;1.13;0.80;;;;;;;14.59;60.16;94392.59;6156875;23;20017;-26
2024/01/07 09:43:47;;;;;;;1.58;0.80;;;;;;;14.52;59.82;94389.66;6156789;23;20060;-26
2024/01/07 09:53:30;;;;;;;7.20;4.28;;;;;;;14.57;59.61;94391.63;6156696;23;20028;-26
2024/01/07 10:09:33;;;;;;;7.10;4.72;;;;;;;14.50;59.20;94394.88;6156078;23;20450;-27
2024/01/07 10:11:58;;;;;;;5.13;3.83;;;;;;;14.54;59.41;94401.56;6156366;23;20005;-26
2024/01/07 10:14:27;;;;;;;4.28;3.25;;;;;;;14.60;59.60;94399.53;6156616;23;20060;-26
2024/01/07 10:23:45;;;;;;;5.40;3.92;;;;;;;14.60;60.02;94399.53;6156373;23;20022;-26
2024/01/07 10:39:37;;;;;;;14.23;8.55;;;;;;;14.50;59.66;94390.16;6154963;23;20029;-26
2024/01/07 10:55:34;;;;;;;2.38;1.58;;;;;;;14.60;59.80;94383.19;6155757;23;20129;-25
2024/01/07 11:11:41;;;;;;;1.50;1.13;;;;;;;14.65;59.71;94379.69;6155981;23;20076;-27
2024/01/07 11:24:40;;;;;;;1.75;1.05;;;;;;;14.64;59.89;94366.56;6155390;23;20016;-26
2024/01/07 11:40:33;;;;;;;1.95;1.30;;;;;;;14.47;59.87;94361.16;6153863;23;20047;-26
2024/01/07 11:42:59;;;;;;;1.80;1.10;;;;;;;14.58;59.37;94361.13;6155825;23;20081;-26
2024/01/07 11:45:25;;;;;;;1.60;1.10;;;;;;;14.52;59.80;94362.38;6155550;23;20079;-26
2024/01/07 11:54:50;;;;;;;36.85;17.70;;;;;;;14.51;60.20;94348.00;6155339;23;20060;-26
2024/01/07 12:10:45;;;;;;;4.97;2.90;;;;;;;14.63;59.51;94354.91;6155038;23;20068;-26
2024/01/07 12:26:37;;;;;;;3.03;1.90;;;;;;;14.39;59.92;94351.97;6155256;23;20071;-26
2024/01/07 12:56:47;;;;;;;3.00;2.05;;;;;;;14.31;58.79;94351.03;6155069;23;20028;-26
2024/01/07 13:27:22;;;;;;;6.70;3.90;;;;;;;14.22;59.08;94370.38;6154730;23;20017;-27
2024/01/07 13:58:06;;;;;;;14.52;11.10;;;;;;;14.33;58.05;94403.81;6156405;23;20596;-26
2024/01/07 14:11:21;;;;;;;10.40;8.38;;;;;;;14.18;58.58;94410.78;6156788;23;20088;-26
2024/01/07 14:27:17;;;;;;;4.53;3.75;;;;;;;14.20;58.41;94409.06;6156585;23;20427;-27
2024/01/07 14:43:10;;;;;;;3.72;2.58;;;;;;;14.40;58.03;94427.13;6154854;23;20075;-26
2024/01/07 14:59:02;;;;;;;10.95;9.10;;;;;;;14.31;58.15;94444.47;6153597;23;20041;-26
2024/01/07 15:12:04;;;;;;;31.48;18.73;;;;;;;14.29;57.91;94451.66;6156015;23;20392;-26
2024/01/07 15:28:21;;;;;;;11.93;7.05;;;;;;;14.09;58.22;94457.41;6165738;23;20159;-26
2024/01/07 15:30:47;;;;;;;14.02;7.32;;;;;;;14.07;58.03;94455.16;6155936;23;20040;-26
2024/01/07 15:43:18;;;;;;;39.30;16.00;;;;;;;14.10;57.90;94469.75;6153983;23;20073;-26
2024/01/07 15:59:17;;;;;;;25.67;10.95;;;;;;;14.00;57.83;94480.16;6155075;23;20439;-26
2024/01/07 16:28:51;;;;;;;22.02;17.23;;;;;;;14.02;57.68;94494.78;6155183;23;20025;-26
2024/01/07 16:44:43;;;;;;;16.13;11.88;;;;;;;14.10;57.37;94513.38;6153968;23;20056;-26
2024/01/07 17:14:02;;;;;;;4.35;3.60;;;;;;;14.01;57.59;94526.00;6156666;23;20021;-26
2024/01/07 17:16:28;;;;;;;4.25;3.30;;;;;;;13.99;57.54;94531.22;6156904;23;20005;-26
2024/01/07 17:28:58;;;;;;;6.07;2.72;;;;;;;13.96;57.89;94540.41;6156610;23;20021;-26
2024/01/07 17:44:49;;;;;;;6.15;5.10;;;;;;;14.08;57.66;94549.31;6155276;23;20106;-26
2024/01/07 18:00:41;;;;;;;13.30;8.98;;;;;;;13.90;57.87;94572.31;6156118;23;20459;-26
2024/01/07 18:30:51;;;;;;;41.00;25.95;;;;;;;13.94;57.77;94580.28;6156088;23;20392;-26
2024/01/07 19:01:02;;;;;;;13.63;9.77;;;;;;;13.93;58.24;94604.06;6156324;23;20465;-27
2024/01/07 19:16:58;;;;;;;16.80;9.15;;;;;;;13.93;58.07;94609.50;6155523;23;20442;-26
2024/01/07 19:30:06;;;;;;;16.75;14.93;;;;;;;14.03;57.98;94627.13;6155400;23;20020;-26
2024/01/07 19:46:35;;;;;;;7.97;4.63;;;;;;;14.19;57.80;94639.31;6154090;23;20081;-26
2024/01/07 20:02:30;;;;;;;10.38;5.47;;;;;;;14.10;58.48;94657.84;6155386;23;20509;-26
2024/01/07 20:15:41;;;;;;;3.70;2.50;;;;;;;14.24;58.19;94663.09;6155297;23;20017;-26
2024/01/07 20:18:10;;;;;;;6.00;2.88;;;;;;;14.34;58.16;94650.69;6128861;23;20346;-26
2024/01/07 20:30:55;;;;;;;4.85;2.35;;;;;;;14.09;58.67;94670.75;6155365;23;20016;-26
2024/01/07 20:46:47;;;;;;;2.78;1.52;;;;;;;14.06;58.78;94679.16;6155716;23;20028;-26
2024/01/07 21:02:50;;;;;;;2.90;1.88;;;;;;;14.13;58.62;94697.75;6156955;23;20088;-26
2024/01/07 21:18:42;;;;;;;3.53;1.35;;;;;;;14.24;58.26;94703.25;6156758;23;20017;-26
2024/01/07 21:31:30;;;;;;;8.75;4.32;;;;;;;14.12;58.90;94720.78;6156586;23;20067;-26
2024/01/07 21:47:22;;;;;;;1.50;1.00;;;;;;;14.19;58.60;94726.53;6155125;23;20032;-26
2024/01/07 22:03:16;;;;;;;1.48;0.82;;;;;;;14.15;58.20;94736.19;6156368;23;20493;-26
2024/01/07 22:05:41;;;;;;;2.17;1.10;;;;;;;14.22;58.22;94741.16;6156610;23;20005;-25
2024/01/07 22:08:07;;;;;;;1.45;1.05;;;;;;;14.22;58.41;94743.88;6156676;23;19997;-26
2024/01/07 22:17:16;;;;;;;1.35;0.90;;;;;;;14.16;58.55;94737.66;6156392;23;20024;-26
2024/01/07 22:19:42;;;;;;;1.27;0.90;;;;;;;14.09;58.76;94740.88;6156341;23;20465;-26
2024/01/07 22:22:08;;;;;;;2.03;0.82;;;;;;;14.15;58.22;94731.47;6156341;23;20001;-26
2024/01/07 22:48:06;;;;;;;1.00;0.70;;;;;;;13.99;58.29;94738.34;6154780;23;20314;-26
2024/01/07 23:04:00;;;;;;;1.50;0.90;;;;;;;14.13;57.68;94746.81;6156001;23;20092;-27
2024/01/07 23:19:53;;;;;;;3.80;1.73;;;;;;;13.98;57.68;94758.66;6155509;23;20064;-26
2024/01/07 23:32:52;;;;;;;0.95;0.68;;;;;;;14.11;57.81;94762.91;6155736;23;20016;-26
2024/01/07 23:49:24;;;;;;;0.93;0.70;;;;;;;13.98;57.64;94783.19;6153978;23;20080;-27
